createdAt,value
2018-06-02T00:01:57.740Z,5.33
2018-06-02T00:04:26.118Z,5.13
2018-06-02T00:06:54.492Z,5.50
2018-06-02T00:09:22.930Z,5.97
2018-06-02T00:11:51.329Z,5.33
2018-06-02T00:14:19.809Z,6.10
2018-06-02T00:16:48.182Z,6.03
2018-06-02T00:19:16.761Z,5.67
2018-06-02T00:21:45.141Z,5.23
2018-06-02T00:24:13.514Z,5.77
2018-06-02T00:26:41.944Z,5.20
2018-06-02T00:29:10.485Z,5.10
2018-06-02T00:31:38.883Z,4.40
2018-06-02T00:34:07.261Z,5.00
2018-06-02T00:36:35.860Z,6.03
2018-06-02T00:39:04.248Z,5.33
2018-06-02T00:41:33.394Z,6.83
2018-06-02T00:44:01.799Z,6.43
2018-06-02T00:46:30.168Z,4.60
2018-06-02T00:48:58.566Z,5.50
2018-06-02T00:51:26.940Z,5.40
2018-06-02T00:53:55.357Z,5.13
2018-06-02T00:56:23.725Z,4.90
2018-06-02T00:58:52.872Z,5.40
2018-06-02T01:01:21.276Z,4.83
2018-06-02T01:03:49.691Z,5.13
2018-06-02T01:06:18.101Z,6.07
2018-06-02T01:08:46.474Z,5.50
2018-06-02T01:11:14.964Z,4.70
2018-06-02T01:13:43.341Z,5.47
2018-06-02T01:16:11.712Z,5.17
2018-06-02T01:18:40.109Z,4.77
2018-06-02T01:21:08.491Z,5.55
2018-06-02T01:23:36.902Z,5.30
2018-06-02T01:26:06.042Z,5.53
2018-06-02T01:28:34.831Z,7.17
2018-06-02T01:31:03.209Z,5.40
2018-06-02T01:33:31.589Z,5.87
2018-06-02T01:36:00.044Z,6.37
2018-06-02T01:38:28.423Z,5.80
2018-06-02T01:40:56.840Z,6.40
2018-06-02T01:43:25.229Z,5.67
2018-06-02T01:45:53.657Z,4.75
2018-06-02T01:48:22.036Z,5.70
2018-06-02T01:50:50.427Z,5.53
2018-06-02T01:53:19.054Z,5.25
2018-06-02T01:55:47.440Z,5.50
2018-06-02T01:58:15.880Z,6.20
2018-06-02T02:00:44.257Z,5.45
2018-06-02T02:03:12.761Z,5.35
2018-06-02T02:05:41.153Z,5.55
2018-06-02T02:08:09.532Z,6.35
2018-06-02T02:10:37.936Z,6.20
2018-06-02T02:13:07.081Z,5.12
2018-06-02T02:15:35.502Z,6.22
2018-06-02T02:18:04.648Z,5.50
2018-06-02T02:20:33.090Z,5.20
2018-06-02T02:23:02.241Z,4.30
2018-06-02T02:25:30.632Z,5.47
2018-06-02T02:27:59.043Z,5.25
2018-06-02T02:30:28.310Z,5.10
2018-06-02T02:32:56.718Z,5.35
2018-06-02T02:35:25.118Z,4.75
2018-06-02T02:37:53.741Z,4.47
2018-06-02T02:40:22.144Z,5.60
2018-06-02T02:42:50.526Z,5.32
2018-06-02T02:45:18.952Z,5.62
2018-06-02T02:47:47.332Z,6.10
2018-06-02T02:50:15.742Z,5.60
2018-06-02T02:52:44.117Z,5.28
2018-06-02T02:55:12.541Z,5.30
2018-06-02T02:57:40.922Z,5.70
2018-06-02T03:00:09.319Z,4.93
2018-06-02T03:02:37.732Z,6.10
2018-06-02T03:05:06.113Z,5.12
2018-06-02T03:07:34.523Z,5.22
2018-06-02T03:10:03.688Z,5.05
2018-06-02T03:12:32.467Z,5.82
2018-06-02T03:15:00.860Z,6.12
2018-06-02T03:17:29.270Z,5.37
2018-06-02T03:19:58.525Z,5.60
2018-06-02T03:22:26.940Z,5.15
2018-06-02T03:24:56.111Z,5.60
2018-06-02T03:27:24.493Z,4.82
2018-06-02T03:29:52.893Z,5.43
2018-06-02T03:32:21.273Z,5.55
2018-06-02T03:34:49.655Z,5.37
2018-06-02T03:37:18.825Z,4.68
2018-06-02T03:39:47.201Z,5.75
2018-06-02T03:42:15.607Z,5.15
2018-06-02T03:44:44.744Z,4.53
2018-06-02T03:47:13.160Z,6.15
2018-06-02T03:49:41.542Z,6.30
2018-06-02T03:52:09.920Z,5.72
2018-06-02T03:54:39.261Z,4.57
2018-06-02T03:57:07.646Z,5.82
2018-06-02T03:59:36.054Z,4.70
2018-06-02T04:02:04.444Z,5.93
2018-06-02T04:04:33.213Z,6.12
2018-06-02T04:07:01.612Z,7.68
2018-06-02T04:09:30.002Z,8.52
2018-06-02T04:11:58.415Z,6.87
2018-06-02T04:14:28.514Z,7.30
2018-06-02T04:16:58.897Z,7.72
2018-06-02T04:19:29.622Z,8.20
2018-06-02T04:21:59.754Z,6.78
2018-06-02T04:24:28.720Z,5.72
2018-06-02T04:26:57.133Z,6.10
2018-06-02T04:29:25.547Z,5.80
2018-06-02T04:31:54.744Z,6.20
2018-06-02T04:34:23.182Z,5.82
2018-06-02T04:36:51.576Z,6.73
2018-06-02T04:39:20.336Z,7.22
2018-06-02T04:41:48.717Z,5.95
2018-06-02T04:44:17.106Z,6.87
2018-06-02T04:46:45.512Z,7.10
2018-06-02T04:49:14.658Z,7.20
2018-06-02T04:51:43.060Z,5.62
2018-06-02T04:54:11.441Z,6.35
2018-06-02T04:56:39.824Z,5.75
2018-06-02T04:59:08.227Z,6.77
2018-06-02T05:01:36.603Z,7.83
2018-06-02T05:04:05.005Z,7.82
2018-06-02T05:06:34.157Z,8.27
2018-06-02T05:09:02.736Z,6.68
2018-06-02T05:11:31.112Z,6.10
2018-06-02T05:13:59.489Z,6.73
2018-06-02T05:16:27.886Z,6.07
2018-06-02T05:18:56.267Z,6.90
2018-06-02T05:21:24.662Z,8.10
2018-06-02T05:23:53.038Z,7.37
2018-06-02T05:26:22.400Z,6.93
2018-06-02T05:28:50.784Z,6.93
2018-06-02T05:31:19.165Z,6.17
2018-06-02T05:33:47.575Z,7.90
2018-06-02T05:36:16.774Z,7.37
2018-06-02T05:38:45.952Z,7.67
2018-06-02T05:41:14.352Z,6.60
2018-06-02T05:43:43.528Z,7.23
2018-06-02T05:46:11.900Z,7.20
2018-06-02T05:48:40.368Z,7.10
2018-06-02T05:51:08.777Z,6.83
2018-06-02T05:53:37.154Z,6.90
2018-06-02T05:56:05.565Z,6.90
2018-06-02T05:58:33.979Z,6.27
2018-06-02T06:01:02.516Z,8.03
2018-06-02T06:03:30.905Z,7.37
2018-06-02T06:05:59.280Z,6.43
2018-06-02T06:08:27.731Z,6.40
2018-06-02T06:10:56.133Z,6.53
2018-06-02T06:13:25.380Z,6.10
2018-06-02T06:15:53.757Z,6.73
2018-06-02T06:18:22.192Z,7.23
2018-06-02T06:20:51.325Z,6.00
2018-06-02T06:23:19.701Z,7.93
2018-06-02T06:25:48.100Z,6.33
2018-06-02T06:28:16.484Z,6.80
2018-06-02T06:30:44.885Z,7.50
2018-06-02T06:33:14.044Z,6.00
2018-06-02T06:35:42.473Z,7.60
2018-06-02T06:38:11.623Z,8.37
2018-06-02T06:40:40.330Z,7.93
2018-06-02T06:43:08.749Z,7.10
2018-06-02T06:45:37.123Z,7.90
2018-06-02T06:48:05.525Z,7.70
2018-06-02T06:50:33.931Z,8.17
2018-06-02T06:53:02.339Z,8.67
2018-06-02T06:55:31.557Z,6.60
2018-06-02T06:57:59.930Z,7.20
2018-06-02T07:00:28.333Z,8.23
2018-06-02T07:02:56.701Z,6.60
2018-06-02T07:05:25.129Z,7.70
2018-06-02T07:07:55.196Z,6.00
2018-06-02T07:10:23.612Z,6.87
2018-06-02T07:12:55.418Z,6.10
2018-06-02T07:15:36.692Z,6.50
2018-06-02T07:18:06.073Z,5.20
2018-06-02T07:20:34.439Z,4.80
2018-06-02T07:23:07.782Z,6.57
2018-06-02T07:25:36.218Z,5.40
2018-06-02T07:28:04.617Z,4.80
2018-06-02T07:30:32.989Z,5.63
2018-06-02T07:33:01.390Z,4.80
2018-06-02T07:35:30.533Z,4.17
2018-06-02T07:37:58.908Z,4.43
2018-06-02T07:40:27.309Z,4.43
2018-06-02T07:42:55.676Z,3.80
2018-06-02T07:45:24.070Z,4.33
2018-06-02T07:47:53.217Z,4.37
2018-06-02T07:50:21.645Z,3.57
2018-06-02T07:52:51.636Z,4.20
2018-06-02T07:55:20.007Z,5.57
2018-06-02T07:57:48.405Z,5.20
2018-06-02T08:00:16.776Z,5.00
2018-06-02T08:02:45.174Z,5.80
2018-06-02T08:05:13.549Z,4.10
2018-06-02T08:07:42.201Z,5.00
2018-06-02T08:10:10.563Z,4.40
2018-06-02T08:12:38.932Z,4.90
2018-06-02T08:15:07.447Z,4.63
2018-06-02T08:17:35.820Z,4.70
2018-06-02T08:20:04.232Z,4.17
2018-06-02T08:22:32.609Z,5.37
2018-06-02T08:25:01.017Z,4.90
2018-06-02T08:27:30.160Z,5.47
2018-06-02T08:29:58.553Z,5.13
2018-06-02T08:32:26.952Z,4.47
2018-06-02T08:34:55.395Z,4.50
2018-06-02T08:37:23.790Z,5.03
2018-06-02T08:39:52.362Z,3.93
2018-06-02T08:42:20.780Z,3.53
2018-06-02T08:44:49.921Z,6.23
2018-06-02T08:47:18.295Z,3.30
2018-06-02T08:49:46.688Z,5.10
2018-06-02T08:52:15.060Z,3.93
2018-06-02T08:54:43.525Z,5.00
2018-06-02T08:57:11.896Z,3.97
2018-06-02T08:59:40.326Z,3.93
2018-06-02T09:02:08.736Z,4.43
2018-06-02T09:04:37.873Z,3.30
2018-06-02T09:07:06.264Z,1.90
2018-06-02T09:09:34.642Z,2.37
2018-06-02T09:12:03.065Z,2.17
2018-06-02T09:14:32.232Z,1.70
2018-06-02T09:17:00.632Z,1.83
2018-06-02T09:19:29.008Z,1.30
2018-06-02T09:21:57.501Z,1.73
2018-06-02T09:24:26.668Z,1.63
2018-06-02T09:26:55.049Z,2.50
2018-06-02T09:29:23.455Z,1.77
2018-06-02T09:31:51.836Z,2.37
2018-06-02T09:34:21.031Z,2.63
2018-06-02T09:36:50.153Z,3.27
2018-06-02T09:39:18.528Z,3.10
2018-06-02T09:41:46.932Z,2.83
2018-06-02T09:44:15.309Z,2.87
2018-06-02T09:46:43.712Z,3.63
2018-06-02T09:49:12.086Z,2.37
2018-06-02T09:51:40.636Z,2.13
2018-06-02T09:54:09.021Z,2.60
2018-06-02T09:56:37.388Z,2.60
2018-06-02T09:59:05.816Z,2.67
2018-06-02T10:01:34.957Z,1.80
2018-06-02T10:04:03.353Z,1.60
2018-06-02T10:06:31.729Z,1.53
2018-06-02T10:09:00.474Z,1.93
2018-06-02T10:11:29.694Z,1.40
2018-06-02T10:13:58.063Z,1.60
2018-06-02T10:16:27.863Z,2.00
2018-06-02T10:18:57.027Z,2.70
2018-06-02T10:21:25.664Z,1.83
2018-06-02T10:23:54.040Z,2.40
2018-06-02T10:26:22.446Z,2.10
2018-06-02T10:28:50.822Z,1.53
2018-06-02T10:31:19.206Z,1.73
2018-06-02T10:33:47.605Z,1.93
2018-06-02T10:36:15.990Z,2.57
2018-06-02T10:38:45.209Z,2.30
2018-06-02T10:41:13.604Z,2.73
2018-06-02T10:43:42.827Z,2.47
2018-06-02T10:46:11.205Z,2.33
2018-06-02T10:48:39.573Z,2.00
2018-06-02T10:51:07.973Z,2.70
2018-06-02T10:53:36.349Z,2.63
2018-06-02T10:56:05.904Z,2.67
2018-06-02T10:58:42.263Z,3.70
2018-06-02T11:01:19.386Z,2.43
2018-06-02T11:03:54.154Z,2.00
2018-06-02T11:06:24.623Z,2.30
2018-06-02T11:08:53.662Z,2.37
2018-06-02T11:11:28.810Z,2.20
2018-06-02T11:13:58.843Z,2.30
2018-06-02T11:16:29.107Z,2.00
2018-06-02T11:19:00.383Z,1.80
2018-06-02T11:21:29.218Z,2.13
2018-06-02T11:23:58.157Z,2.27
2018-06-02T11:26:27.823Z,2.10
2018-06-02T11:28:57.690Z,1.53
2018-06-02T11:31:27.505Z,2.90
2018-06-02T11:33:57.706Z,2.57
2018-06-02T11:36:32.304Z,2.27
2018-06-02T11:39:03.255Z,2.60
2018-06-02T11:41:34.030Z,1.90
2018-06-02T11:44:05.181Z,1.73
2018-06-02T11:46:35.012Z,1.67
2018-06-02T11:49:04.843Z,2.10
2018-06-02T11:51:34.596Z,1.87
2018-06-02T11:54:07.407Z,1.70
2018-06-02T11:56:40.214Z,1.77
2018-06-02T11:59:10.492Z,1.77
2018-06-02T12:01:45.600Z,2.07
2018-06-02T12:04:18.679Z,1.90
2018-06-02T12:06:47.406Z,1.90
2018-06-02T12:09:16.600Z,2.13
2018-06-02T12:11:45.820Z,1.80
2018-06-02T12:14:14.208Z,1.67
2018-06-02T12:16:43.882Z,2.23
2018-06-02T12:19:12.282Z,1.80
2018-06-02T12:21:41.131Z,2.07
2018-06-02T12:24:09.580Z,1.63
2018-06-02T12:26:38.200Z,2.00
2018-06-02T12:29:06.616Z,1.83
2018-06-02T12:31:35.874Z,1.80
2018-06-02T12:34:09.895Z,1.80
2018-06-02T12:36:38.778Z,2.10
2018-06-02T12:39:07.560Z,2.23
2018-06-02T12:41:35.960Z,1.90
2018-06-02T12:44:04.344Z,2.00
2018-06-02T12:46:32.745Z,2.53
2018-06-02T12:49:01.880Z,2.50
2018-06-02T12:51:30.365Z,2.20
2018-06-02T12:53:58.773Z,1.70
2018-06-02T12:56:27.457Z,2.07
2018-06-02T12:58:55.838Z,1.93
2018-06-02T13:01:24.216Z,4.87
2018-06-02T13:03:52.627Z,2.73
2018-06-02T13:06:21.781Z,1.97
2018-06-02T13:08:50.253Z,1.70
2018-06-02T13:11:18.652Z,1.47
2018-06-02T13:13:52.613Z,1.53
2018-06-02T13:16:23.169Z,1.30
2018-06-02T13:18:51.564Z,2.00
2018-06-02T13:21:19.973Z,1.40
2018-06-02T13:23:49.103Z,1.20
2018-06-02T13:26:17.582Z,2.03
2018-06-02T13:28:46.939Z,1.47
2018-06-02T13:31:15.341Z,1.50
2018-06-02T13:33:44.486Z,1.80
2018-06-02T13:36:13.061Z,1.60
2018-06-02T13:38:41.441Z,1.27
2018-06-02T13:41:09.824Z,1.70
2018-06-02T13:43:38.227Z,1.53
2018-06-02T13:46:06.605Z,2.80
2018-06-02T13:48:35.023Z,2.60
2018-06-02T13:51:03.451Z,2.03
2018-06-02T13:53:32.220Z,1.87
2018-06-02T13:56:00.587Z,1.63
2018-06-02T13:58:28.982Z,3.07
2018-06-02T14:00:57.389Z,2.03
2018-06-02T14:03:25.842Z,1.43
2018-06-02T14:05:54.329Z,1.73
2018-06-02T14:08:22.716Z,2.90
2018-06-02T14:16:39.954Z,1.50
2018-06-02T14:19:09.955Z,1.80
2018-06-02T14:21:38.386Z,1.83
2018-06-02T14:24:06.763Z,1.60
2018-06-02T14:26:35.145Z,1.50
2018-06-02T14:29:04.322Z,1.60
2018-06-02T14:31:32.696Z,2.03
2018-06-02T14:34:01.568Z,1.20
2018-06-02T14:36:30.049Z,2.03
2018-06-02T14:38:58.635Z,1.53
2018-06-02T14:41:27.167Z,1.90
2018-06-02T14:43:56.473Z,1.60
2018-06-02T14:46:26.029Z,2.13
2018-06-02T14:48:54.904Z,1.60
2018-06-02T14:51:23.869Z,4.23
2018-06-02T14:53:52.722Z,2.10
2018-06-02T14:56:21.927Z,3.73
2018-06-02T14:58:50.510Z,2.07
2018-06-02T15:01:19.719Z,1.50
2018-06-02T15:03:48.160Z,1.60
2018-06-02T15:06:16.553Z,1.50
2018-06-02T15:08:44.988Z,1.50
2018-06-02T15:11:13.404Z,1.80
2018-06-02T15:13:42.066Z,1.77
2018-06-02T15:16:10.450Z,1.20
2018-06-02T15:18:38.824Z,1.50
2018-06-02T15:21:07.241Z,2.60
2018-06-02T15:23:35.696Z,1.73
2018-06-02T15:26:04.909Z,1.43
2018-06-02T15:28:33.281Z,1.63
2018-06-02T15:31:01.957Z,3.77
2018-06-02T15:33:30.425Z,1.60
2018-06-02T15:35:58.795Z,1.70
2018-06-02T15:38:27.190Z,2.87
2018-06-02T15:40:55.569Z,2.40
2018-06-02T15:43:23.979Z,1.80
2018-06-02T15:45:52.367Z,1.63
2018-06-02T15:48:21.760Z,2.00
2018-06-02T15:50:50.161Z,1.70
2018-06-02T15:53:18.539Z,1.70
2018-06-02T15:55:47.700Z,1.50
2018-06-02T15:58:17.715Z,1.47
2018-06-02T16:00:46.133Z,1.77
2018-06-02T16:03:14.577Z,2.37
2018-06-02T16:05:43.548Z,1.40
2018-06-02T16:08:12.084Z,2.30
2018-06-02T16:10:40.840Z,2.10
2018-06-02T16:13:09.481Z,1.40
2018-06-02T16:15:37.978Z,2.00
2018-06-02T16:18:06.811Z,1.77
2018-06-02T16:20:35.962Z,44.97
2018-06-02T16:23:04.873Z,10.50
2018-06-02T16:25:33.434Z,1.73
2018-06-02T16:28:02.438Z,1.70
2018-06-02T16:30:31.008Z,0.97
2018-06-02T16:32:59.800Z,2.13
2018-06-02T16:35:28.562Z,1.57
2018-06-02T16:37:57.797Z,1.10
2018-06-02T16:40:26.563Z,2.00
2018-06-02T16:42:54.949Z,1.30
2018-06-02T16:45:25.685Z,2.90
2018-06-02T16:47:54.165Z,2.20
2018-06-02T16:50:22.703Z,1.93
2018-06-02T16:52:51.930Z,1.77
2018-06-02T16:55:20.604Z,1.90
2018-06-02T16:57:49.018Z,1.60
2018-06-02T17:00:20.753Z,1.47
2018-06-02T17:02:50.574Z,1.77
2018-06-02T17:05:21.307Z,1.97
2018-06-02T17:07:50.841Z,2.00
2018-06-02T17:10:21.937Z,1.80
2018-06-02T17:12:50.816Z,1.83
2018-06-02T17:15:19.218Z,1.97
2018-06-02T17:17:48.528Z,1.63
2018-06-02T17:20:18.094Z,2.27
2018-06-02T17:22:49.228Z,1.33
2018-06-02T17:25:20.947Z,2.27
2018-06-02T17:27:49.616Z,3.50
2018-06-02T17:30:20.831Z,2.40
2018-06-02T17:32:50.055Z,2.67
2018-06-02T17:35:19.866Z,3.07
2018-06-02T17:37:49.833Z,3.50
2018-06-02T17:40:21.020Z,1.83
2018-06-02T17:42:51.046Z,1.90
2018-06-02T17:45:21.194Z,1.40
2018-06-02T17:48:12.797Z,3.03
2018-06-02T17:50:47.571Z,2.57
2018-06-02T17:53:16.436Z,2.40
2018-06-02T17:58:19.785Z,2.17
2018-06-02T18:03:48.135Z,2.13
2018-06-02T18:06:16.733Z,2.87
2018-06-02T18:08:45.730Z,2.70
2018-06-02T18:11:14.583Z,2.30
2018-06-02T18:13:42.994Z,4.60
2018-06-02T18:16:11.393Z,6.00
2018-06-02T18:18:40.913Z,9.20
2018-06-02T18:21:09.739Z,11.33
2018-06-02T18:23:38.389Z,6.00
2018-06-02T18:26:06.964Z,4.90
2018-06-02T18:28:37.646Z,3.23
2018-06-02T18:31:07.015Z,3.40
2018-06-02T18:33:35.795Z,3.87
2018-06-02T18:36:05.531Z,2.53
2018-06-02T18:38:34.381Z,10.00
2018-06-02T18:41:02.962Z,5.70
2018-06-02T18:43:31.333Z,2.30
2018-06-02T18:46:01.017Z,2.43
2018-06-02T18:48:30.245Z,3.20
2018-06-02T18:50:59.275Z,3.30
2018-06-02T18:53:28.004Z,3.00
2018-06-02T18:55:57.133Z,2.40
2018-06-02T18:58:25.548Z,3.00
2018-06-02T19:00:55.999Z,2.73
2018-06-02T19:03:26.769Z,2.80
2018-06-02T19:05:55.608Z,2.33
2018-06-02T19:08:25.280Z,2.50
2018-06-02T19:10:57.049Z,2.77
2018-06-02T19:13:26.249Z,4.07
2018-06-02T19:15:55.549Z,2.93
2018-06-02T19:18:25.451Z,3.97
2018-06-02T19:20:55.254Z,5.47
2018-06-02T19:23:25.066Z,3.37
2018-06-02T19:25:53.850Z,3.50
2018-06-02T19:28:23.855Z,5.10
2018-06-02T19:30:53.925Z,5.73
2018-06-02T19:33:23.825Z,4.47
2018-06-02T19:35:55.140Z,3.60
2018-06-02T19:38:25.165Z,5.80
2018-06-02T19:40:55.622Z,6.70
2018-06-02T19:43:25.550Z,5.80
2018-06-02T19:45:55.116Z,5.00
2018-06-02T19:48:24.054Z,3.93
2018-06-02T19:50:52.890Z,3.40
2018-06-02T19:53:21.910Z,2.93
2018-06-02T19:55:51.287Z,3.20
2018-06-02T19:58:19.852Z,4.03
2018-06-02T20:00:49.091Z,4.67
2018-06-02T20:03:18.313Z,4.87
2018-06-02T20:05:47.452Z,4.00
2018-06-02T20:08:16.955Z,2.83
2018-06-02T20:10:45.448Z,2.83
2018-06-02T20:13:13.889Z,3.70
2018-06-02T20:15:43.075Z,2.57
2018-06-02T20:18:11.501Z,2.70
2018-06-02T20:20:40.317Z,3.43
2018-06-02T20:23:09.074Z,3.90
2018-06-02T20:25:37.465Z,2.90
2018-06-02T20:28:05.960Z,3.70
2018-06-02T20:30:34.646Z,3.47
2018-06-02T20:33:03.091Z,3.73
2018-06-02T20:35:32.091Z,2.80
2018-06-02T20:38:02.486Z,3.17
2018-06-02T20:40:32.584Z,5.23
2018-06-02T20:43:02.961Z,5.60
2018-06-02T20:45:32.935Z,6.30
2018-06-02T20:48:02.007Z,5.87
2018-06-02T20:50:31.696Z,6.90
2018-06-02T20:53:00.758Z,7.10
2018-06-02T20:55:29.999Z,6.40
2018-06-02T20:57:59.917Z,19.37
2018-06-02T21:00:30.045Z,22.80
2018-06-02T21:02:59.707Z,26.20
2018-06-02T21:05:29.237Z,29.50
2018-06-02T21:07:58.854Z,13.67
2018-06-02T21:10:29.387Z,6.70
2018-06-02T21:12:59.481Z,5.07
2018-06-02T21:15:28.039Z,4.73
2018-06-02T21:17:56.451Z,4.20
2018-06-02T21:20:24.857Z,10.30
2018-06-02T21:22:53.426Z,10.23
2018-06-02T21:25:21.844Z,6.60
2018-06-02T21:27:51.730Z,6.17
2018-06-02T21:30:20.329Z,6.87
2018-06-02T21:32:49.503Z,5.43
2018-06-02T21:35:17.892Z,8.03
2018-06-02T21:37:46.407Z,5.50
2018-06-02T21:40:15.708Z,6.70
2018-06-02T21:42:44.840Z,6.30
2018-06-02T21:45:13.236Z,5.20
2018-06-02T21:47:41.638Z,5.50
2018-06-02T21:50:10.080Z,6.23
2018-06-02T21:52:38.476Z,5.70
2018-06-02T21:55:07.085Z,6.10
2018-06-02T21:57:37.595Z,6.23
2018-06-02T22:00:07.569Z,7.80
2018-06-02T22:02:40.482Z,7.10
2018-06-02T22:05:11.420Z,8.93
2018-06-02T22:07:44.029Z,7.33
2018-06-02T22:10:13.667Z,13.53
2018-06-02T22:12:43.188Z,14.20
2018-06-02T22:15:11.653Z,15.50
2018-06-02T22:18:04.996Z,14.10
2018-06-02T22:20:34.141Z,12.07
2018-06-02T22:23:02.720Z,10.00
2018-06-02T22:25:31.102Z,6.80
2018-06-02T22:27:59.512Z,6.97
2018-06-02T22:30:28.697Z,7.13
2018-06-02T22:32:57.066Z,6.90
2018-06-02T22:35:25.458Z,6.27
2018-06-02T22:37:53.842Z,6.13
2018-06-02T22:40:22.271Z,6.63
2018-06-02T22:42:50.679Z,6.87
2018-06-02T22:45:19.136Z,6.80
2018-06-02T22:47:47.542Z,6.23
2018-06-02T22:50:15.913Z,6.50
2018-06-02T22:52:44.370Z,7.00
2018-06-02T22:55:12.756Z,6.10
2018-06-02T22:57:41.348Z,7.93
2018-06-02T23:00:09.728Z,6.93
2018-06-02T23:02:38.092Z,6.60
2018-06-02T23:05:06.533Z,7.40
2018-06-02T23:07:35.730Z,8.33
2018-06-02T23:10:36.925Z,8.77
2018-06-02T23:13:07.014Z,8.60
2018-06-02T23:15:37.813Z,10.97
2018-06-02T23:18:08.720Z,9.33
2018-06-02T23:20:39.522Z,11.10
2018-06-02T23:23:09.828Z,10.13
2018-06-02T23:25:40.051Z,8.77
2018-06-02T23:28:10.364Z,8.77
2018-06-02T23:30:41.294Z,8.27
2018-06-02T23:33:11.620Z,8.33
2018-06-02T23:35:41.804Z,6.47
2018-06-02T23:38:12.441Z,6.50
2018-06-02T23:40:42.760Z,6.30
2018-06-02T23:43:12.946Z,5.80
2018-06-02T23:45:43.245Z,5.73
2018-06-02T23:48:13.513Z,6.40
2018-06-02T23:50:43.740Z,6.17
2018-06-02T23:53:13.908Z,6.30
2018-06-02T23:55:44.322Z,5.83
2018-06-02T23:58:14.480Z,5.87
